Time;durP1;ratioP1;P1;durP2;ratioP2;P2;SDS_P1;SDS_P2;PMS_P1;PMS_P2;Temp;Humidity;BMP_temperature;BMP_pressure;BME280_temperature;BME280_humidity;BME280_pressure;Samples;Min_cycle;Max_cycle;Signal;HPM_P1;HPM_P2
2023/10/21 10:55:57;;;;;;;1.65;0.50;;;;;;;17.01;60.68;93533.06;6208035;23;20028;-86
2023/10/21 10:58:26;;;;;;;1.52;0.50;;;;;;;17.18;60.02;93538.91;6189271;23;20051;-85
2023/10/21 11:00:55;;;;;;;0.77;0.60;;;;;;;17.11;60.82;93551.47;6186717;23;20091;-86
2023/10/21 12:53:40;;;;;;;1.80;1.60;;;;;;;16.18;63.04;93607.97;6220052;23;20079;-85
2023/10/21 12:56:06;;;;;;;3.10;2.90;;;;;;;16.32;63.31;93618.81;6212725;23;20024;-85
2023/10/21 12:58:32;;;;;;;3.28;2.97;;;;;;;16.12;64.15;93613.44;6191168;23;20016;-85
2023/10/21 13:00:58;;;;;;;2.63;2.42;;;;;;;16.26;63.42;93601.47;6191259;23;20161;-85
2023/10/21 13:03:24;;;;;;;2.47;2.28;;;;;;;16.14;63.81;93598.22;6166195;23;20032;-84
2023/10/21 13:05:52;;;;;;;1.90;1.80;;;;;;;16.20;63.13;93577.03;6188670;22;20013;-85
2023/10/21 13:16:04;;;;;;;8.45;5.40;;;;;;;16.29;63.48;93598.31;6237328;23;20081;-86
2023/10/21 13:18:30;;;;;;;5.35;4.10;;;;;;;16.36;63.17;93593.66;6216969;23;20008;-85
2023/10/21 13:20:56;;;;;;;2.45;2.22;;;;;;;16.48;62.77;93597.94;6192449;23;20004;-85
2023/10/21 13:23:22;;;;;;;2.40;2.10;;;;;;;16.40;63.16;93599.97;6191470;23;20027;-84
2023/10/21 13:25:47;;;;;;;2.22;2.03;;;;;;;16.33;63.66;93603.88;6216925;23;20012;-85
2023/10/21 13:28:12;;;;;;;3.83;2.38;;;;;;;16.22;63.89;93605.63;6166960;23;20019;-85
2023/10/21 13:30:38;;;;;;;2.88;2.45;;;;;;;16.28;63.60;93616.94;6192424;23;20004;-85
2023/10/21 13:33:09;;;;;;;2.33;2.10;;;;;;;16.49;62.30;93612.63;6221896;23;20011;-85
2023/10/21 13:51:14;;;;;;;3.78;3.08;;;;;;;16.33;63.02;93636.13;6233009;23;20046;-85
2023/10/21 13:53:39;;;;;;;4.53;3.93;;;;;;;16.29;63.59;93635.06;6190661;23;20074;-85
2023/10/21 13:56:06;;;;;;;3.78;3.47;;;;;;;16.30;63.14;93636.66;6216687;23;20090;-85
2023/10/21 13:58:33;;;;;;;7.05;4.40;;;;;;;16.18;63.52;93630.78;6191822;23;20016;-85
2023/10/21 14:11:12;;;;;;;2.60;2.40;;;;;;;15.89;63.39;93648.66;6244784;22;20022;-85
2023/10/21 14:18:41;;;;;;;1.70;1.60;;;;;;;15.79;63.12;93649.34;6228538;22;20024;-85
2023/10/21 14:21:12;;;;;;;2.42;2.22;;;;;;;15.71;64.31;93655.00;6216717;23;20015;-84
2023/10/21 14:23:38;;;;;;;1.60;1.50;;;;;;;15.83;62.88;93659.06;6217099;23;20007;-85
2023/10/21 14:31:19;;;;;;;1.73;1.58;;;;;;;15.87;62.99;93666.44;6241615;22;20028;-86
2023/10/21 14:41:21;;;;;;;1.95;1.30;;;;;;;15.89;62.26;93667.78;6241541;22;20027;-86
2023/10/21 14:43:46;;;;;;;1.92;1.45;;;;;;;15.99;62.96;93681.00;6191885;23;20061;-85
2023/10/21 14:46:13;;;;;;;1.50;1.40;;;;;;;16.00;63.10;93685.19;6216667;23;20004;-85
2023/10/21 14:48:40;;;;;;;1.30;1.20;;;;;;;16.09;63.12;93687.34;6167969;23;20012;-84
2023/10/21 14:51:07;;;;;;;1.25;1.10;;;;;;;16.05;63.44;93687.09;6217009;23;20007;-85
2023/10/21 14:56:49;;;;;;;2.10;1.42;;;;;;;16.03;63.47;93689.94;6240940;23;20032;-85
2023/10/21 14:59:15;;;;;;;1.20;1.10;;;;;;;16.06;63.38;93688.66;6189781;23;20020;-85
2023/10/21 15:09:19;;;;;;;1.00;0.95;;;;;;;15.93;63.39;93716.06;6237705;22;20012;-85
2023/10/21 15:11:48;;;;;;;1.45;0.80;;;;;;;15.93;62.16;93712.66;6192032;23;20039;-85
2023/10/21 15:14:13;;;;;;;2.08;1.20;;;;;;;15.87;63.22;93697.91;6215952;23;20011;-85
2023/10/21 15:19:14;;;;;;;3.28;1.77;;;;;;;16.14;61.68;93708.38;6241785;23;20020;-85
2023/10/21 15:21:39;;;;;;;1.63;1.13;;;;;;;16.22;61.54;93716.59;6190029;23;20073;-85
2023/10/21 15:24:05;;;;;;;1.67;1.55;;;;;;;15.90;62.67;93700.06;6166492;23;20016;-85
2023/10/21 15:26:31;;;;;;;3.25;2.00;;;;;;;15.76;63.56;93710.13;6190804;23;20012;-85
2023/10/21 15:28:57;;;;;;;1.80;1.70;;;;;;;15.68;63.97;93707.91;6167017;23;20008;-85
2023/10/21 15:31:23;;;;;;;1.90;1.70;;;;;;;15.81;63.93;93718.81;6215499;23;20039;-86
2023/10/21 15:39:05;;;;;;;3.22;2.20;;;;;;;15.72;64.14;93727.34;6236501;23;20022;-84
2023/10/21 15:41:30;;;;;;;4.63;2.78;;;;;;;15.93;63.22;93736.25;6195764;23;20008;-84
2023/10/21 16:14:11;;;;;;;2.28;0.90;;;;;;;15.14;61.76;93756.53;6220844;23;20024;-85
2023/10/21 16:29:25;;;;;;;2.60;1.30;;;;;;;14.82;62.20;93756.34;6240934;22;20024;-84
2023/10/21 16:31:50;;;;;;;3.25;1.30;;;;;;;14.62;61.30;93759.44;6214708;23;20008;-86
2023/10/21 16:34:16;;;;;;;1.58;0.80;;;;;;;14.72;60.24;93759.59;6213127;23;20082;-85
2023/10/21 16:49:27;;;;;;;0.73;0.65;;;;;;;14.98;58.27;93796.63;6218650;22;20020;-85
2023/10/21 16:51:54;;;;;;;1.00;0.77;;;;;;;15.16;56.80;93796.38;6217159;23;20000;-85
2023/10/21 16:56:45;;;;;;;2.85;1.65;;;;;;;14.93;56.83;93810.44;6177900;23;20009;-86
2023/10/21 16:59:11;;;;;;;2.05;0.90;;;;;;;15.10;56.16;93802.56;6154498;23;20031;-83
2023/10/21 17:01:36;;;;;;;1.50;1.13;;;;;;;15.07;57.33;93803.03;6185284;23;20008;-85
2023/10/21 17:04:02;;;;;;;1.33;0.65;;;;;;;15.17;56.84;93818.91;6162639;23;20028;-86
2023/10/21 17:06:30;;;;;;;0.68;0.65;;;;;;;15.39;55.79;93820.78;6160611;23;20019;-85
2023/10/21 17:08:57;;;;;;;1.70;1.20;;;;;;;15.30;57.61;93827.47;6161820;23;20007;-85
2023/10/21 17:11:24;;;;;;;1.50;1.10;;;;;;;14.97;59.20;93832.47;6186682;23;20011;-85
2023/10/21 17:21:25;;;;;;;1.30;0.55;;;;;;;15.00;57.66;93860.00;6241702;22;20020;-85
2023/10/21 17:23:54;;;;;;;1.40;0.65;;;;;;;15.22;57.22;93871.34;6216551;23;20022;-85
2023/10/21 17:26:20;;;;;;;0.80;0.70;;;;;;;15.18;57.20;93872.88;6191607;23;20082;-85
2023/10/21 17:28:49;;;;;;;2.15;1.33;;;;;;;14.85;58.30;93874.44;6166949;23;20016;-85
2023/10/21 17:31:14;;;;;;;5.38;2.70;;;;;;;14.82;58.93;93877.53;6217147;23;20024;-85
2023/10/21 17:36:15;;;;;;;3.03;2.00;;;;;;;14.53;60.67;93883.81;6242193;23;20016;-85
2023/10/21 17:38:45;;;;;;;3.08;2.00;;;;;;;14.53;61.38;93887.22;6217031;23;20062;-85
2023/10/21 17:41:10;;;;;;;1.53;1.23;;;;;;;14.32;60.57;93893.91;6216202;23;20011;-85
2023/10/21 17:43:36;;;;;;;1.65;0.90;;;;;;;14.60;59.68;93893.13;6194279;23;20023;-85
2023/10/21 17:46:03;;;;;;;2.50;0.93;;;;;;;14.61;59.77;93886.84;6196524;23;20014;-85
2023/10/21 17:50:54;;;;;;;1.08;0.90;;;;;;;14.00;61.05;93894.31;6232704;23;20094;-86
2023/10/21 17:53:22;;;;;;;0.93;0.65;;;;;;;14.29;60.09;93907.44;6216863;23;20073;-85
2023/10/21 17:55:48;;;;;;;0.90;0.60;;;;;;;14.19;60.12;93896.78;6190946;23;20012;-84
2023/10/21 17:58:15;;;;;;;1.70;0.70;;;;;;;13.81;60.35;93905.94;6191760;23;20018;-85
2023/10/21 18:00:40;;;;;;;0.77;0.40;;;;;;;13.34;61.29;93903.34;6191988;23;20004;-85
2023/10/21 18:03:06;;;;;;;0.82;0.50;;;;;;;13.56;60.42;93893.94;6190960;23;20015;-85
2023/10/21 18:05:31;;;;;;;1.55;0.70;;;;;;;13.17;61.90;93890.16;6191321;23;20019;-85
2023/10/21 18:07:57;;;;;;;1.75;1.05;;;;;;;13.51;60.47;93913.94;6214762;23;20016;-85
2023/10/21 18:10:23;;;;;;;1.95;0.90;;;;;;;13.72;60.06;93902.09;6216165;23;20004;-85
2023/10/21 18:12:52;;;;;;;0.90;0.70;;;;;;;13.60;59.04;93915.97;6216601;23;20090;-86
2023/10/21 18:15:19;;;;;;;1.25;0.73;;;;;;;13.35;59.84;93904.97;6179808;23;20032;-86
2023/10/21 18:17:45;;;;;;;1.25;0.70;;;;;;;13.23;59.98;93899.69;6156286;23;20024;-85
2023/10/21 18:20:11;;;;;;;0.93;0.68;;;;;;;13.67;59.32;93919.25;6156908;23;20009;-85
2023/10/21 18:22:36;;;;;;;0.50;0.50;;;;;;;13.24;59.46;93919.56;6180299;23;20008;-85
2023/10/21 18:25:03;;;;;;;1.13;0.40;;;;;;;13.19;59.67;93904.56;6102217;23;20016;-85
2023/10/21 18:27:29;;;;;;;1.20;0.50;;;;;;;13.81;57.58;93914.56;6148393;23;20041;-87
2023/10/21 18:29:55;;;;;;;0.55;0.35;;;;;;;13.92;56.32;93902.53;6102173;23;20012;-85
2023/10/21 18:32:20;;;;;;;0.65;0.50;;;;;;;13.97;57.51;93920.91;6145359;23;19997;-85
2023/10/21 18:39:46;;;;;;;1.40;0.40;;;;;;;13.39;57.35;93903.47;6213609;22;20024;-85
2023/10/21 18:42:12;;;;;;;1.50;0.82;;;;;;;13.36;58.04;93893.47;6190696;23;20012;-85
2023/10/21 18:44:39;;;;;;;0.65;0.50;;;;;;;13.40;57.59;93903.25;6191348;23;20008;-85
2023/10/21 18:47:05;;;;;;;1.45;0.80;;;;;;;13.85;57.69;93907.88;6190809;23;20019;-85
2023/10/21 18:49:31;;;;;;;1.27;1.17;;;;;;;13.76;60.49;93909.22;6167348;23;20016;-85
2023/10/21 18:51:56;;;;;;;1.10;0.80;;;;;;;14.03;58.30;93898.28;6166083;23;20007;-85
2023/10/21 18:54:23;;;;;;;1.70;1.35;;;;;;;14.16;59.94;93898.03;6215696;23;20003;-86
2023/10/21 18:56:48;;;;;;;1.42;0.90;;;;;;;14.06;60.44;93921.34;6215950;23;20015;-84
2023/10/21 18:59:14;;;;;;;2.47;1.23;;;;;;;14.27;59.87;93933.81;6165929;23;20031;-86
2023/10/21 19:01:39;;;;;;;0.65;0.30;;;;;;;14.20;56.52;93924.50;6154111;23;20032;-85
2023/10/21 19:04:07;;;;;;;0.40;0.30;;;;;;;14.09;56.35;93928.75;6155625;23;20023;-84
2023/10/21 19:14:19;;;;;;;1.95;0.40;;;;;;;13.71;59.16;93944.91;6210316;23;20008;-85
2023/10/21 19:16:45;;;;;;;0.47;0.30;;;;;;;13.74;58.82;93940.03;6161447;23;20016;-84
2023/10/21 19:19:10;;;;;;;0.90;0.50;;;;;;;13.52;59.21;93937.22;6161008;23;20023;-85
2023/10/21 19:21:36;;;;;;;1.73;0.50;;;;;;;13.54;58.99;93955.28;6160588;23;20008;-85
2023/10/21 19:26:27;;;;;;;0.95;0.50;;;;;;;13.62;58.36;93960.16;6234427;23;20020;-85
2023/10/21 19:28:53;;;;;;;0.60;0.47;;;;;;;13.46;58.73;93940.72;6189885;23;20074;-85
2023/10/21 19:31:21;;;;;;;0.38;0.35;;;;;;;13.50;59.56;93957.53;6190241;23;20008;-85
2023/10/21 19:33:47;;;;;;;2.08;0.50;;;;;;;13.34;60.25;93960.81;6189388;23;20031;-86
2023/10/21 19:36:13;;;;;;;0.70;0.30;;;;;;;13.20;60.82;93947.16;6214549;23;20024;-85
2023/10/21 19:38:41;;;;;;;1.35;0.50;;;;;;;13.37;59.22;93962.97;6165453;23;20023;-86
2023/10/21 19:41:11;;;;;;;0.55;0.40;;;;;;;13.47;58.37;93968.44;6214375;23;19996;-85
2023/10/21 19:43:37;;;;;;;1.30;0.50;;;;;;;13.62;58.91;93968.00;6190144;23;20012;-85
2023/10/21 19:46:05;;;;;;;0.50;0.35;;;;;;;13.82;56.63;93963.22;6165789;23;20012;-85
2023/10/21 19:48:29;;;;;;;0.50;0.25;;;;;;;13.92;56.60;93975.72;6206185;22;20099;-85
2023/10/21 19:50:54;;;;;;;0.45;0.30;;;;;;;13.79;56.71;93975.94;6164268;23;20013;-85
2023/10/21 19:53:20;;;;;;;1.05;0.40;;;;;;;13.95;57.38;93990.94;6183450;23;20005;-84
2023/10/21 19:55:54;;;;;;;0.10;0.10;;;;;;;13.77;55.19;93985.84;6132387;23;20013;-85
2023/10/21 19:58:21;;;;;;;0.55;0.20;;;;;;;13.72;55.66;93983.09;6179957;23;20012;-85
2023/10/21 20:00:46;;;;;;;0.25;0.20;;;;;;;13.85;55.85;93994.13;6156251;23;20117;-85
2023/10/21 20:03:14;;;;;;;0.25;0.20;;;;;;;13.92;56.00;93998.41;6155984;23;20119;-85
2023/10/21 20:05:42;;;;;;;2.03;0.30;;;;;;;13.79;55.83;93987.19;6180147;23;20013;-84
2023/10/21 20:08:08;;;;;;;0.32;0.22;;;;;;;13.54;56.04;94003.09;6180382;23;20013;-86
2023/10/21 20:10:36;;;;;;;0.50;0.32;;;;;;;13.46;58.90;93998.16;6155151;23;20016;-86
2023/10/21 20:13:02;;;;;;;0.80;0.35;;;;;;;13.27;58.85;93998.25;6130302;23;20009;-85
2023/10/21 20:15:29;;;;;;;1.75;0.30;;;;;;;13.77;55.54;94009.34;6179551;23;20091;-85
2023/10/21 20:17:57;;;;;;;0.20;0.20;;;;;;;13.72;55.47;93993.56;6130822;23;20041;-85
2023/10/21 20:20:23;;;;;;;0.40;0.20;;;;;;;13.67;54.44;94007.31;6156003;23;20039;-85
2023/10/21 20:25:15;;;;;;;0.30;0.15;;;;;;;13.39;57.26;94010.56;6225635;22;20076;-85
2023/10/21 20:27:40;;;;;;;0.20;0.20;;;;;;;13.22;55.89;94015.59;6137823;23;20036;-85
2023/10/21 20:30:06;;;;;;;0.30;0.20;;;;;;;13.78;55.10;94027.41;6187447;23;20011;-85
2023/10/21 20:32:32;;;;;;;0.60;0.40;;;;;;;13.89;55.81;94012.75;6163001;23;20006;-84
2023/10/21 20:34:58;;;;;;;0.80;0.30;;;;;;;13.91;54.99;94020.38;6162879;23;20014;-85
2023/10/21 20:37:26;;;;;;;0.77;0.30;;;;;;;13.89;55.85;94017.97;6162946;23;20087;-85
2023/10/21 20:39:52;;;;;;;0.90;0.57;;;;;;;13.81;58.38;94019.13;6186524;23;20004;-85
2023/10/21 20:42:17;;;;;;;0.98;0.40;;;;;;;14.07;57.03;94022.31;6186676;23;20009;-85
2023/10/21 20:44:46;;;;;;;1.00;0.40;;;;;;;14.16;57.92;94043.66;6186953;23;20004;-85
2023/10/21 20:49:41;;;;;;;3.28;0.93;;;;;;;13.80;60.15;94030.59;6235473;22;20031;-85
2023/10/21 20:52:12;;;;;;;1.63;0.70;;;;;;;14.06;59.73;94041.63;6216624;23;20079;-86
2023/10/21 20:54:37;;;;;;;0.90;0.40;;;;;;;14.10;58.95;94039.34;6217159;23;20187;-85
2023/10/21 20:57:04;;;;;;;0.85;0.40;;;;;;;14.09;58.52;94043.78;6167237;23;20020;-85
2023/10/21 21:07:14;;;;;;;0.73;0.40;;;;;;;13.84;60.74;94046.59;6242711;22;20020;-85
2023/10/21 21:09:40;;;;;;;0.73;0.32;;;;;;;13.60;60.58;94037.97;6216109;23;20011;-86
2023/10/21 21:12:06;;;;;;;0.90;0.32;;;;;;;13.79;59.76;94038.66;6216209;23;20004;-86
2023/10/21 21:14:31;;;;;;;1.95;0.40;;;;;;;13.73;60.28;94036.94;6191574;23;20070;-86
2023/10/21 21:16:57;;;;;;;0.70;0.40;;;;;;;13.87;60.39;94061.84;6167266;23;20016;-85
2023/10/21 22:15:12;;;;;;;1.38;0.45;;;;;;;13.29;61.46;94092.81;6205991;23;20020;-86
